Justice — WDG2184 — position and weather

sailwx.info

Track history (hours):
 
Tides and Currents Weather Stations Pressure Air Temp Water Temp Dewpoint Dewpoint Depression Visibility Wind Speed Wind Dir Waves Ship Positions

Justice

Owner: Boston Towing & Transportation, Boston, MA. More information available from US FCC via Universal Licensing System and Coast Guard Vessel Documentation Center.

Last reported at 2016-May-27 20:32 UTC. Time now 2016-May-27 22:03 UTC.
Position N 42°23' W 071°03'.

Length 30 m; draft 5.8 m.

Type: Tug. MMSI: 367513010.

Date/timePositionNaut miles runAvg speedWind from/ knotsBaromVisibWave heightAir tempDewpointWater temp
2016-May-27 20:32N 42°23' W 071°03'2 0.8
2016-May-27 18:26N 42°24' W 071°01'2 2.1
2016-May-27 17:33N 42°23' W 071°03'3 2.5
2016-May-27 16:33N 42°21' W 071°01'1 0.5
2016-May-27 15:33N 42°21' W 071°02'2 0.3
2016-May-27 09:29N 42°23' W 071°03'0 0.0
2016-May-27 08:30N 42°23' W 071°03'0 0.0
2016-May-27 07:32N 42°23' W 071°03'0 0.0
2016-May-27 06:33N 42°23' W 071°03'0 0.3
2016-May-27 05:34N 42°23' W 071°02'0 0.3
2016-May-27 04:19N 42°23' W 071°03'1 1.1
2016-May-27 03:31N 42°23' W 071°04'1 0.9
2016-May-27 02:31N 42°23' W 071°03'0 0.0
2016-May-27 01:33N 42°23' W 071°03'1 0.7
2016-May-27 00:33N 42°23' W 071°03'1 0.7
2016-May-26 23:33N 42°23' W 071°03'0 0.0
2016-May-26 22:33N 42°23' W 071°03'0 0.0
2016-May-26 21:33N 42°23' W 071°03'1 1.4
2016-May-26 20:33N 42°24' W 071°01'1 1.3
2016-May-26 19:33N 42°23' W 071°03'0 0.0
2016-May-26 18:33N 42°23' W 071°03'0 0.0
2016-May-26 17:33N 42°23' W 071°03'0 0.0
2016-May-26 16:33N 42°23' W 071°03'0 0.0
2016-May-26 15:33N 42°23' W 071°03'0 0.0
2016-May-26 14:33N 42°23' W 071°03'0 0.0
2016-May-26 13:33N 42°23' W 071°03'0 0.0
2016-May-26 12:31N 42°23' W 071°03'0 0.0
2016-May-26 11:33N 42°23' W 071°03'1 0.8
2016-May-26 10:33N 42°23' W 071°02'0 0.3
2016-May-26 09:33N 42°23' W 071°01'1 1.1
2016-May-26 08:33N 42°23' W 071°03'1 1.4
2016-May-26 07:33N 42°24' W 071°01'0 0.2
2016-May-26 06:33N 42°23' W 071°01'1 1.3
2016-May-26 05:33N 42°23' W 071°03'0 0.0
2016-May-26 04:33N 42°23' W 071°03'0 0.0
2016-May-26 03:33N 42°23' W 071°03'0 0.2
2016-May-26 02:33N 42°23' W 071°03'4 4.1
2016-May-26 01:33N 42°20' W 070°58'0 0.0
2016-May-26 00:33N 42°20' W 070°58'0 0.0
2016-May-25 23:33N 42°20' W 070°58'3 3.2
2016-May-25 22:33N 42°21' W 071°02'2 1.8
2016-May-25 21:28N 42°23' W 071°03'1 0.6
2016-May-25 20:33N 42°23' W 071°03'0 0.3
2016-May-25 19:33N 42°23' W 071°03'0 0.0
2016-May-25 18:33N 42°23' W 071°03'0 0.0
2016-May-25 17:33N 42°23' W 071°03'1 1.3
2016-May-25 16:33N 42°23' W 071°01'2 2.3
2016-May-25 15:33N 42°21' W 071°02'3 2.8
2016-May-25 14:33N 42°24' W 071°01'2 1.7
2016-May-25 13:33N 42°23' W 071°03'0 0.0
2016-May-25 12:33N 42°23' W 071°03'0 0.0
2016-May-25 11:33N 42°23' W 071°03'1 0.6
2016-May-25 10:33N 42°23' W 071°03'2 2.2
2016-May-25 09:33N 42°21' W 071°02'2 1.7
2016-May-25 08:33N 42°23' W 071°03'0 0.0
2016-May-25 07:33N 42°23' W 071°03'0 0.0
2016-May-25 06:33N 42°23' W 071°03'1 0.8
2016-May-25 05:33N 42°23' W 071°03'1 1.3
2016-May-25 04:33N 42°22' W 071°03'1 0.8
2016-May-25 03:33N 42°23' W 071°03'1 1.0
2016-May-25 02:33N 42°23' W 071°01'1 1.0
2016-May-25 01:33N 42°23' W 071°03'1 0.8
2016-May-25 00:33N 42°23' W 071°03'1 0.8
2016-May-24 23:33N 42°23' W 071°03'0 0.0
2016-May-24 22:33N 42°23' W 071°03'1 1.1
2016-May-24 21:33N 42°23' W 071°01'1 0.6
2016-May-24 20:33N 42°23' W 071°02'1 0.5
2016-May-24 19:33N 42°23' W 071°03'0 0.0
2016-May-24 18:33N 42°23' W 071°03'0 0.0
2016-May-24 17:33N 42°23' W 071°03'0 0.0
2016-May-24 16:33N 42°23' W 071°03'0 0.0
2016-May-24 15:33N 42°23' W 071°03'0 0.0
2016-May-24 14:33N 42°23' W 071°03'0 0.0
2016-May-24 13:33N 42°23' W 071°03'0 0.0
2016-May-24 12:33N 42°23' W 071°03'0 0.0
2016-May-24 11:33N 42°23' W 071°03'0 0.2
2016-May-24 10:33N 42°23' W 071°03'0 0.2
2016-May-24 09:32N 42°23' W 071°03'0 0.0
2016-May-24 08:33N 42°23' W 071°03'0 0.0
2016-May-24 07:33N 42°23' W 071°03'0 0.0
2016-May-24 06:33N 42°23' W 071°03'0 0.0
2016-May-24 05:32N 42°23' W 071°03'0 0.0
2016-May-24 04:31N 42°23' W 071°03'0 0.0
2016-May-24 03:33N 42°23' W 071°03'0 0.0
2016-May-24 02:33N 42°23' W 071°03'0 0.0
2016-May-24 01:33N 42°23' W 071°03'0 0.0
2016-May-24 00:33N 42°23' W 071°03'0 0.0
2016-May-23 23:33N 42°23' W 071°03'0 0.0
2016-May-23 22:33N 42°23' W 071°03'0 0.0
2016-May-23 21:33N 42°23' W 071°03'0 0.0
2016-May-23 20:33N 42°23' W 071°03'0 0.1
2016-May-23 19:33N 42°23' W 071°03'0 0.1
2016-May-23 18:32N 42°23' W 071°03'0 0.0
2016-May-23 17:33N 42°23' W 071°03'0 0.0
2016-May-23 16:30N 42°23' W 071°03'2 1.7
2016-May-23 15:33N 42°24' W 071°01'2 2.3
2016-May-23 14:33N 42°22' W 071°03'1 0.8
2016-May-23 13:33N 42°23' W 071°03'0 0.0
2016-May-23 12:33N 42°23' W 071°03'0 0.0
2016-May-23 11:33N 42°23' W 071°03'3 2.5
2016-May-23 10:33N 42°21' W 071°01'1 0.6
2016-May-23 09:33N 42°20' W 071°00'3 2.9
2016-May-23 08:33N 42°23' W 071°03'0 0.0
2016-May-23 07:12N 42°23' W 071°03'0 0.0
2016-May-23 06:33N 42°23' W 071°03'1 0.8
2016-May-23 05:33N 42°23' W 071°03'2 2.1
2016-May-23 04:33N 42°21' W 071°02'1 1.5
2016-May-23 03:33N 42°23' W 071°03'0 0.0
2016-May-23 02:33N 42°23' W 071°03'0 0.0
2016-May-23 01:33N 42°23' W 071°03'0 0.1
2016-May-23 00:33N 42°23' W 071°03'1 1.1
2016-May-22 23:33N 42°22' W 071°02'1 1.2
2016-May-22 22:33N 42°23' W 071°03'0 0.0
2016-May-22 21:33N 42°23' W 071°03'0 0.0
2016-May-22 20:33N 42°23' W 071°03'0 0.0
2016-May-22 19:33N 42°23' W 071°03'0 0.0
2016-May-22 18:33N 42°23' W 071°03'0 0.0
2016-May-22 17:20N 42°23' W 071°03'1 1.0
2016-May-22 16:33N 42°23' W 071°04'1 0.2
2016-May-22 11:33N 42°23' W 071°03'0 0.0
2016-May-22 10:33N 42°23' W 071°03'0 0.0
2016-May-22 09:31N 42°23' W 071°03'0 0.0
2016-May-22 08:33N 42°23' W 071°03'2 2.5
2016-May-22 07:33N 42°21' W 071°01'1 0.5
2016-May-22 06:33N 42°20' W 071°00'3 2.9
2016-May-22 05:33N 42°23' W 071°03'0 0.0
2016-May-22 04:33N 42°23' W 071°03'0 0.0
2016-May-22 03:33N 42°23' W 071°03'0 0.0
2016-May-22 02:33N 42°23' W 071°03'0 0.0
2016-May-22 01:33N 42°23' W 071°03'0 0.0
2016-May-22 00:27N 42°23' W 071°03'3 2.9
2016-May-21 23:33N 42°21' W 071°01'2 2.0
2016-May-21 22:33N 42°22' W 071°03'1 0.9
2016-May-21 21:31N 42°23' W 071°03'0 0.0
2016-May-21 20:32N 42°23' W 071°03'0 0.0
2016-May-21 19:33N 42°23' W 071°03'0 0.0
2016-May-21 18:33N 42°23' W 071°03'0 0.0
2016-May-21 17:33N 42°23' W 071°03'0 0.0
2016-May-21 16:33N 42°23' W 071°03'0 0.0
2016-May-21 15:33N 42°23' W 071°03'0 0.0
2016-May-21 14:33N 42°23' W 071°03'0 0.0
2016-May-21 13:33N 42°23' W 071°03'0 0.0
2016-May-21 12:33N 42°23' W 071°03'0 0.0
2016-May-21 11:33N 42°23' W 071°03'0 0.2
2016-May-21 10:34N 42°23' W 071°03'0 0.2
2016-May-21 09:33N 42°23' W 071°03'0 0.0
2016-May-21 08:33N 42°23' W 071°03'0 0.0
2016-May-21 07:33N 42°23' W 071°03'1 1.4
2016-May-21 06:33N 42°24' W 071°01'1 0.6
2016-May-21 05:33N 42°23' W 071°02'1 0.8
2016-May-21 04:32N 42°23' W 071°03'0 0.5
2016-May-21 03:33N 42°23' W 071°02'1 0.5
2016-May-21 02:33N 42°23' W 071°01'3 2.6
2016-May-21 01:33N 42°21' W 071°01'0 0.2
2016-May-21 00:33N 42°21' W 071°01'1 0.5
2016-May-20 23:30N 42°21' W 071°02'5 5.8
2016-May-20 22:33N 42°17' W 070°56'3 3.1
2016-May-20 21:33N 42°15' W 070°59'1 0.9
2016-May-20 20:33N 42°15' W 070°58'0 0.0
2016-May-20 19:33N 42°15' W 070°58'5 5.4
2016-May-20 18:33N 42°20' W 070°57'6 5.8
2016-May-20 17:33N 42°23' W 071°04'1 1.0
2016-May-20 16:33N 42°22' W 071°03'0 0.3
2016-May-20 15:29N 42°23' W 071°03'0 0.0
2016-May-20 13:32N 42°23' W 071°03'0 0.0
2016-May-20 12:26N 42°23' W 071°03'6 7.3
2016-May-20 11:33N 42°19' W 070°55'5 4.9
2016-May-20 10:33N 42°15' W 070°59'3 2.5
2016-May-20 09:33N 42°16' W 070°56'8 8.4
2016-May-20 08:33N 42°23' W 071°02'1 0.7
2016-May-20 07:33N 42°23' W 071°01'1 0.7
2016-May-20 06:22N 42°23' W 071°03'0 0.0
2016-May-20 05:32N 42°23' W 071°03'0 0.0
2016-May-20 04:33N 42°23' W 071°03'0 0.0
2016-May-20 03:33N 42°23' W 071°03'0 0.0
2016-May-20 02:33N 42°23' W 071°03'0 0.0
2016-May-20 01:33N 42°23' W 071°03'0 0.0
2016-May-20 00:33N 42°23' W 071°03'0 0.0
2016-May-19 23:33N 42°23' W 071°03'0 0.0
2016-May-19 22:33N 42°23' W 071°03'0 0.0
2016-May-19 21:33N 42°23' W 071°03'0 0.0
2016-May-19 20:33N 42°23' W 071°03'0 0.0
2016-May-19 19:33N 42°23' W 071°03'0 0.0
2016-May-19 18:33N 42°23' W 071°03'0 0.0
2016-May-19 17:33N 42°23' W 071°03'0 0.0
2016-May-19 16:33N 42°23' W 071°03'1 1.0
2016-May-19 15:30N 42°23' W 071°04'0 0.0
2016-May-19 14:33N 42°23' W 071°04'2 1.6
2016-May-19 13:33N 42°22' W 071°03'4 4.0
2016-May-19 12:33N 42°21' W 070°58'0 0.0
2016-May-19 11:33N 42°21' W 070°58'2 2.0
2016-May-19 10:33N 42°22' W 070°55'3 3.1
2016-May-19 09:33N 42°23' W 070°51'8 8.3
2016-May-19 08:33N 42°22' W 071°02'1 1.2
2016-May-19 07:33N 42°23' W 071°03'0 0.3
2016-May-19 06:33N 42°23' W 071°03'2 1.7
2016-May-19 05:33N 42°24' W 071°01'2 1.7
2016-May-19 04:33N 42°23' W 071°03'0 0.0
2016-May-19 03:33N 42°23' W 071°03'1 0.8
2016-May-19 02:33N 42°23' W 071°03'1 0.7
2016-May-19 01:33N 42°23' W 071°03'0 0.0
2016-May-19 00:33N 42°23' W 071°03'0 0.0
2016-May-18 23:33N 42°23' W 071°03'0 0.0
2016-May-18 22:33N 42°23' W 071°03'0 0.0
2016-May-18 21:33N 42°23' W 071°03'0 0.0
2016-May-18 20:33N 42°23' W 071°03'0 0.4
2016-May-18 19:33N 42°22' W 071°03'4 4.1
2016-May-18 18:33N 42°21' W 070°58'3 3.5
2016-May-18 17:33N 42°17' W 070°56'4 3.7
2016-May-18 16:33N 42°14' W 070°58'4 3.9
2016-May-18 15:34N 42°18' W 070°55'5 5.4
2016-May-18 14:33N 42°21' W 071°01'2 2.2
2016-May-18 13:33N 42°23' W 071°03'0 0.0
2016-May-18 12:33N 42°23' W 071°03'0 0.0
2016-May-18 11:33N 42°23' W 071°03'1 1.4
2016-May-18 10:33N 42°24' W 071°01'2 2.1
2016-May-18 09:33N 42°22' W 071°03'1 1.0
2016-May-18 08:33N 42°23' W 071°03'0 0.3
2016-May-18 07:34N 42°23' W 071°03'0 0.3
2016-May-18 06:33N 42°23' W 071°03'0 0.0
2016-May-18 05:33N 42°23' W 071°03'0 0.0
2016-May-18 04:33N 42°23' W 071°03'0 0.0
2016-May-18 03:33N 42°23' W 071°03'0 0.0
2016-May-18 02:33N 42°23' W 071°03'2 1.7
2016-May-18 01:33N 42°24' W 071°01'2 1.7
2016-May-18 00:33N 42°23' W 071°03'8 8.5
2016-May-17 23:33N 42°16' W 070°56'2 1.8
2016-May-17 22:33N 42°15' W 070°58'4 3.9
2016-May-17 21:33N 42°18' W 070°55'4 4.1
2016-May-17 20:33N 42°20' W 071°00'  
Track history (hours):
 
Tides and Currents Weather Stations Pressure Air Temp Water Temp Dewpoint Dewpoint Depression Visibility Wind Speed Wind Dir Waves Ship Positions

Justice

Owner: Boston Towing & Transportation, Boston, MA. More information available from US FCC via Universal Licensing System and Coast Guard Vessel Documentation Center.

Last reported at 2016-May-27 20:32 UTC. Time now 2016-May-27 22:03 UTC.
Position N 42°23' W 071°03'.

Length 30 m; draft 5.8 m.

Type: Tug. MMSI: 367513010.

Date/timePositionNaut miles runAvg speedWind from/ knotsBaromVisibWave heightAir tempDewpointWater temp
2016-May-27 20:32N 42°23' W 071°03'2 0.8
2016-May-27 18:26N 42°24' W 071°01'2 2.1
2016-May-27 17:33N 42°23' W 071°03'3 2.5
2016-May-27 16:33N 42°21' W 071°01'1 0.5
2016-May-27 15:33N 42°21' W 071°02'2 0.3
2016-May-27 09:29N 42°23' W 071°03'0 0.0
2016-May-27 08:30N 42°23' W 071°03'0 0.0
2016-May-27 07:32N 42°23' W 071°03'0 0.0
2016-May-27 06:33N 42°23' W 071°03'0 0.3
2016-May-27 05:34N 42°23' W 071°02'0 0.3
2016-May-27 04:19N 42°23' W 071°03'1 1.1
2016-May-27 03:31N 42°23' W 071°04'1 0.9
2016-May-27 02:31N 42°23' W 071°03'0 0.0
2016-May-27 01:33N 42°23' W 071°03'1 0.7
2016-May-27 00:33N 42°23' W 071°03'1 0.7
2016-May-26 23:33N 42°23' W 071°03'0 0.0
2016-May-26 22:33N 42°23' W 071°03'0 0.0
2016-May-26 21:33N 42°23' W 071°03'1 1.4
2016-May-26 20:33N 42°24' W 071°01'1 1.3
2016-May-26 19:33N 42°23' W 071°03'0 0.0
2016-May-26 18:33N 42°23' W 071°03'0 0.0
2016-May-26 17:33N 42°23' W 071°03'0 0.0
2016-May-26 16:33N 42°23' W 071°03'0 0.0
2016-May-26 15:33N 42°23' W 071°03'0 0.0
2016-May-26 14:33N 42°23' W 071°03'0 0.0
2016-May-26 13:33N 42°23' W 071°03'0 0.0
2016-May-26 12:31N 42°23' W 071°03'0 0.0
2016-May-26 11:33N 42°23' W 071°03'1 0.8
2016-May-26 10:33N 42°23' W 071°02'0 0.3
2016-May-26 09:33N 42°23' W 071°01'1 1.1
2016-May-26 08:33N 42°23' W 071°03'1 1.4
2016-May-26 07:33N 42°24' W 071°01'0 0.2
2016-May-26 06:33N 42°23' W 071°01'1 1.3
2016-May-26 05:33N 42°23' W 071°03'0 0.0
2016-May-26 04:33N 42°23' W 071°03'0 0.0
2016-May-26 03:33N 42°23' W 071°03'0 0.2
2016-May-26 02:33N 42°23' W 071°03'4 4.1
2016-May-26 01:33N 42°20' W 070°58'0 0.0
2016-May-26 00:33N 42°20' W 070°58'0 0.0
2016-May-25 23:33N 42°20' W 070°58'3 3.2
2016-May-25 22:33N 42°21' W 071°02'2 1.8
2016-May-25 21:28N 42°23' W 071°03'1 0.6
2016-May-25 20:33N 42°23' W 071°03'0 0.3
2016-May-25 19:33N 42°23' W 071°03'0 0.0
2016-May-25 18:33N 42°23' W 071°03'0 0.0
2016-May-25 17:33N 42°23' W 071°03'1 1.3
2016-May-25 16:33N 42°23' W 071°01'2 2.3
2016-May-25 15:33N 42°21' W 071°02'3 2.8
2016-May-25 14:33N 42°24' W 071°01'2 1.7
2016-May-25 13:33N 42°23' W 071°03'0 0.0
2016-May-25 12:33N 42°23' W 071°03'0 0.0
2016-May-25 11:33N 42°23' W 071°03'1 0.6
2016-May-25 10:33N 42°23' W 071°03'2 2.2
2016-May-25 09:33N 42°21' W 071°02'2 1.7
2016-May-25 08:33N 42°23' W 071°03'0 0.0
2016-May-25 07:33N 42°23' W 071°03'0 0.0
2016-May-25 06:33N 42°23' W 071°03'1 0.8
2016-May-25 05:33N 42°23' W 071°03'1 1.3
2016-May-25 04:33N 42°22' W 071°03'1 0.8
2016-May-25 03:33N 42°23' W 071°03'1 1.0
2016-May-25 02:33N 42°23' W 071°01'1 1.0
2016-May-25 01:33N 42°23' W 071°03'1 0.8
2016-May-25 00:33N 42°23' W 071°03'1 0.8
2016-May-24 23:33N 42°23' W 071°03'0 0.0
2016-May-24 22:33N 42°23' W 071°03'1 1.1
2016-May-24 21:33N 42°23' W 071°01'1 0.6
2016-May-24 20:33N 42°23' W 071°02'1 0.5
2016-May-24 19:33N 42°23' W 071°03'0 0.0
2016-May-24 18:33N 42°23' W 071°03'0 0.0
2016-May-24 17:33N 42°23' W 071°03'0 0.0
2016-May-24 16:33N 42°23' W 071°03'0 0.0
2016-May-24 15:33N 42°23' W 071°03'0 0.0
2016-May-24 14:33N 42°23' W 071°03'0 0.0
2016-May-24 13:33N 42°23' W 071°03'0 0.0
2016-May-24 12:33N 42°23' W 071°03'0 0.0
2016-May-24 11:33N 42°23' W 071°03'0 0.2
2016-May-24 10:33N 42°23' W 071°03'0 0.2
2016-May-24 09:32N 42°23' W 071°03'0 0.0
2016-May-24 08:33N 42°23' W 071°03'0 0.0
2016-May-24 07:33N 42°23' W 071°03'0 0.0
2016-May-24 06:33N 42°23' W 071°03'0 0.0
2016-May-24 05:32N 42°23' W 071°03'0 0.0
2016-May-24 04:31N 42°23' W 071°03'0 0.0
2016-May-24 03:33N 42°23' W 071°03'0 0.0
2016-May-24 02:33N 42°23' W 071°03'0 0.0
2016-May-24 01:33N 42°23' W 071°03'0 0.0
2016-May-24 00:33N 42°23' W 071°03'0 0.0
2016-May-23 23:33N 42°23' W 071°03'0 0.0
2016-May-23 22:33N 42°23' W 071°03'0 0.0
2016-May-23 21:33N 42°23' W 071°03'0 0.0
2016-May-23 20:33N 42°23' W 071°03'0 0.1
2016-May-23 19:33N 42°23' W 071°03'0 0.1
2016-May-23 18:32N 42°23' W 071°03'0 0.0
2016-May-23 17:33N 42°23' W 071°03'0 0.0
2016-May-23 16:30N 42°23' W 071°03'2 1.7
2016-May-23 15:33N 42°24' W 071°01'2 2.3
2016-May-23 14:33N 42°22' W 071°03'1 0.8
2016-May-23 13:33N 42°23' W 071°03'0 0.0
2016-May-23 12:33N 42°23' W 071°03'0 0.0
2016-May-23 11:33N 42°23' W 071°03'3 2.5
2016-May-23 10:33N 42°21' W 071°01'1 0.6
2016-May-23 09:33N 42°20' W 071°00'3 2.9
2016-May-23 08:33N 42°23' W 071°03'0 0.0
2016-May-23 07:12N 42°23' W 071°03'0 0.0
2016-May-23 06:33N 42°23' W 071°03'1 0.8
2016-May-23 05:33N 42°23' W 071°03'2 2.1
2016-May-23 04:33N 42°21' W 071°02'1 1.5
2016-May-23 03:33N 42°23' W 071°03'0 0.0
2016-May-23 02:33N 42°23' W 071°03'0 0.0
2016-May-23 01:33N 42°23' W 071°03'0 0.1
2016-May-23 00:33N 42°23' W 071°03'1 1.1
2016-May-22 23:33N 42°22' W 071°02'1 1.2
2016-May-22 22:33N 42°23' W 071°03'0 0.0
2016-May-22 21:33N 42°23' W 071°03'0 0.0
2016-May-22 20:33N 42°23' W 071°03'0 0.0
2016-May-22 19:33N 42°23' W 071°03'0 0.0
2016-May-22 18:33N 42°23' W 071°03'0 0.0
2016-May-22 17:20N 42°23' W 071°03'1 1.0
2016-May-22 16:33N 42°23' W 071°04'1 0.2
2016-May-22 11:33N 42°23' W 071°03'0 0.0
2016-May-22 10:33N 42°23' W 071°03'0 0.0
2016-May-22 09:31N 42°23' W 071°03'0 0.0
2016-May-22 08:33N 42°23' W 071°03'2 2.5
2016-May-22 07:33N 42°21' W 071°01'1 0.5
2016-May-22 06:33N 42°20' W 071°00'3 2.9
2016-May-22 05:33N 42°23' W 071°03'0 0.0
2016-May-22 04:33N 42°23' W 071°03'0 0.0
2016-May-22 03:33N 42°23' W 071°03'0 0.0
2016-May-22 02:33N 42°23' W 071°03'0 0.0
2016-May-22 01:33N 42°23' W 071°03'0 0.0
2016-May-22 00:27N 42°23' W 071°03'3 2.9
2016-May-21 23:33N 42°21' W 071°01'2 2.0
2016-May-21 22:33N 42°22' W 071°03'1 0.9
2016-May-21 21:31N 42°23' W 071°03'0 0.0
2016-May-21 20:32N 42°23' W 071°03'0 0.0
2016-May-21 19:33N 42°23' W 071°03'0 0.0
2016-May-21 18:33N 42°23' W 071°03'0 0.0
2016-May-21 17:33N 42°23' W 071°03'0 0.0
2016-May-21 16:33N 42°23' W 071°03'0 0.0
2016-May-21 15:33N 42°23' W 071°03'0 0.0
2016-May-21 14:33N 42°23' W 071°03'0 0.0
2016-May-21 13:33N 42°23' W 071°03'0 0.0
2016-May-21 12:33N 42°23' W 071°03'0 0.0
2016-May-21 11:33N 42°23' W 071°03'0 0.2
2016-May-21 10:34N 42°23' W 071°03'0 0.2
2016-May-21 09:33N 42°23' W 071°03'0 0.0
2016-May-21 08:33N 42°23' W 071°03'0 0.0
2016-May-21 07:33N 42°23' W 071°03'1 1.4
2016-May-21 06:33N 42°24' W 071°01'1 0.6
2016-May-21 05:33N 42°23' W 071°02'1 0.8
2016-May-21 04:32N 42°23' W 071°03'0 0.5
2016-May-21 03:33N 42°23' W 071°02'1 0.5
2016-May-21 02:33N 42°23' W 071°01'3 2.6
2016-May-21 01:33N 42°21' W 071°01'0 0.2
2016-May-21 00:33N 42°21' W 071°01'1 0.5
2016-May-20 23:30N 42°21' W 071°02'5 5.8
2016-May-20 22:33N 42°17' W 070°56'3 3.1
2016-May-20 21:33N 42°15' W 070°59'1 0.9
2016-May-20 20:33N 42°15' W 070°58'0 0.0
2016-May-20 19:33N 42°15' W 070°58'5 5.4
2016-May-20 18:33N 42°20' W 070°57'6 5.8
2016-May-20 17:33N 42°23' W 071°04'1 1.0
2016-May-20 16:33N 42°22' W 071°03'0 0.3
2016-May-20 15:29N 42°23' W 071°03'0 0.0
2016-May-20 13:32N 42°23' W 071°03'0 0.0
2016-May-20 12:26N 42°23' W 071°03'6 7.3
2016-May-20 11:33N 42°19' W 070°55'5 4.9
2016-May-20 10:33N 42°15' W 070°59'3 2.5
2016-May-20 09:33N 42°16' W 070°56'8 8.4
2016-May-20 08:33N 42°23' W 071°02'1 0.7
2016-May-20 07:33N 42°23' W 071°01'1 0.7
2016-May-20 06:22N 42°23' W 071°03'0 0.0
2016-May-20 05:32N 42°23' W 071°03'0 0.0
2016-May-20 04:33N 42°23' W 071°03'0 0.0
2016-May-20 03:33N 42°23' W 071°03'0 0.0
2016-May-20 02:33N 42°23' W 071°03'0 0.0
2016-May-20 01:33N 42°23' W 071°03'0 0.0
2016-May-20 00:33N 42°23' W 071°03'0 0.0
2016-May-19 23:33N 42°23' W 071°03'0 0.0
2016-May-19 22:33N 42°23' W 071°03'0 0.0
2016-May-19 21:33N 42°23' W 071°03'0 0.0
2016-May-19 20:33N 42°23' W 071°03'0 0.0
2016-May-19 19:33N 42°23' W 071°03'0 0.0
2016-May-19 18:33N 42°23' W 071°03'0 0.0
2016-May-19 17:33N 42°23' W 071°03'0 0.0
2016-May-19 16:33N 42°23' W 071°03'1 1.0
2016-May-19 15:30N 42°23' W 071°04'0 0.0
2016-May-19 14:33N 42°23' W 071°04'2 1.6
2016-May-19 13:33N 42°22' W 071°03'4 4.0
2016-May-19 12:33N 42°21' W 070°58'0 0.0
2016-May-19 11:33N 42°21' W 070°58'2 2.0
2016-May-19 10:33N 42°22' W 070°55'3 3.1
2016-May-19 09:33N 42°23' W 070°51'8 8.3
2016-May-19 08:33N 42°22' W 071°02'1 1.2
2016-May-19 07:33N 42°23' W 071°03'0 0.3
2016-May-19 06:33N 42°23' W 071°03'2 1.7
2016-May-19 05:33N 42°24' W 071°01'2 1.7
2016-May-19 04:33N 42°23' W 071°03'0 0.0
2016-May-19 03:33N 42°23' W 071°03'1 0.8
2016-May-19 02:33N 42°23' W 071°03'1 0.7
2016-May-19 01:33N 42°23' W 071°03'0 0.0
2016-May-19 00:33N 42°23' W 071°03'0 0.0
2016-May-18 23:33N 42°23' W 071°03'0 0.0
2016-May-18 22:33N 42°23' W 071°03'0 0.0
2016-May-18 21:33N 42°23' W 071°03'0 0.0
2016-May-18 20:33N 42°23' W 071°03'0 0.4
2016-May-18 19:33N 42°22' W 071°03'4 4.1
2016-May-18 18:33N 42°21' W 070°58'3 3.5
2016-May-18 17:33N 42°17' W 070°56'4 3.7
2016-May-18 16:33N 42°14' W 070°58'4 3.9
2016-May-18 15:34N 42°18' W 070°55'5 5.4
2016-May-18 14:33N 42°21' W 071°01'2 2.2
2016-May-18 13:33N 42°23' W 071°03'0 0.0
2016-May-18 12:33N 42°23' W 071°03'0 0.0
2016-May-18 11:33N 42°23' W 071°03'1 1.4
2016-May-18 10:33N 42°24' W 071°01'2 2.1
2016-May-18 09:33N 42°22' W 071°03'1 1.0
2016-May-18 08:33N 42°23' W 071°03'0 0.3
2016-May-18 07:34N 42°23' W 071°03'0 0.3
2016-May-18 06:33N 42°23' W 071°03'0 0.0
2016-May-18 05:33N 42°23' W 071°03'0 0.0
2016-May-18 04:33N 42°23' W 071°03'0 0.0
2016-May-18 03:33N 42°23' W 071°03'0 0.0
2016-May-18 02:33N 42°23' W 071°03'2 1.7
2016-May-18 01:33N 42°24' W 071°01'2 1.7
2016-May-18 00:33N 42°23' W 071°03'8 8.5
2016-May-17 23:33N 42°16' W 070°56'2 1.8
2016-May-17 22:33N 42°15' W 070°58'4 3.9
2016-May-17 21:33N 42°18' W 070°55'4 4.1
2016-May-17 20:33N 42°20' W 071°00'  

Dump ship's entire track history